createdAt,value
2022-10-19T04:18:31.231Z,53.63
2022-10-19T04:21:03.998Z,56.45
2022-10-19T04:23:34.269Z,57.80
2022-10-19T04:26:03.317Z,54.97
2022-10-19T04:28:31.043Z,49.10
2022-10-19T04:31:02.181Z,46.10
2022-10-19T04:33:29.500Z,47.40
2022-10-19T04:36:04.659Z,44.42
2022-10-19T04:38:32.599Z,45.90
2022-10-19T04:41:11.162Z,48.10
2022-10-19T04:43:38.864Z,53.55
2022-10-19T04:46:08.168Z,47.83
2022-10-19T04:48:37.094Z,44.28
2022-10-19T04:51:05.383Z,47.17
2022-10-19T04:53:33.942Z,47.80
2022-10-19T04:56:05.592Z,48.53
2022-10-19T05:01:00.281Z,49.13
2022-10-19T05:03:27.512Z,51.30
2022-10-19T05:05:54.935Z,47.63
2022-10-19T05:08:22.575Z,49.47
2022-10-19T05:10:50.172Z,48.72
2022-10-19T05:13:17.649Z,50.08
2022-10-19T05:15:55.589Z,49.67
2022-10-19T05:18:24.307Z,49.35
2022-10-19T05:20:52.167Z,48.75
2022-10-19T05:23:19.383Z,48.47
2022-10-19T05:25:46.622Z,46.83
2022-10-19T05:28:13.840Z,43.10
2022-10-19T05:30:45.409Z,37.38
2022-10-19T05:33:15.531Z,34.30
2022-10-19T05:35:42.788Z,32.83
2022-10-19T05:38:13.017Z,30.65
2022-10-19T05:40:48.270Z,32.10
2022-10-19T05:43:18.037Z,32.53
2022-10-19T05:45:45.259Z,32.85
2022-10-19T05:48:13.057Z,32.97
2022-10-19T05:50:40.295Z,35.28
2022-10-19T05:53:08.473Z,37.53
2022-10-19T05:55:36.477Z,41.97
2022-10-19T05:58:04.273Z,39.17
2022-10-19T06:00:31.549Z,42.03
2022-10-19T06:02:59.251Z,40.97
2022-10-19T06:05:27.093Z,43.45
2022-10-19T06:07:54.368Z,45.08
2022-10-19T06:10:21.693Z,42.58
2022-10-19T06:12:49.208Z,40.75
2022-10-19T06:15:16.967Z,40.88
2022-10-19T06:17:44.274Z,39.10
2022-10-19T06:20:11.912Z,39.60
2022-10-19T06:22:39.557Z,39.85
2022-10-19T06:25:07.144Z,38.83
2022-10-19T06:27:34.635Z,38.40
2022-10-19T06:30:02.921Z,39.05
2022-10-19T06:32:30.252Z,36.13
2022-10-19T06:34:57.460Z,36.25
2022-10-19T06:37:24.709Z,33.92
2022-10-19T06:39:53.339Z,32.97
2022-10-19T06:42:21.079Z,31.95
2022-10-19T06:44:48.395Z,30.35
2022-10-19T06:47:16.048Z,32.83
2022-10-19T06:49:44.262Z,33.30
2022-10-19T06:52:11.573Z,31.45
2022-10-19T06:54:39.388Z,30.27
2022-10-19T06:57:08.016Z,31.13
2022-10-19T06:59:35.265Z,30.27
2022-10-19T07:02:02.951Z,31.23
2022-10-19T07:04:30.275Z,28.70
2022-10-19T07:06:58.674Z,29.27
2022-10-19T07:09:26.187Z,27.60
2022-10-19T07:11:53.505Z,28.77
2022-10-19T07:14:21.333Z,27.90
2022-10-19T07:16:49.604Z,26.55
2022-10-19T07:19:17.633Z,27.27
2022-10-19T07:21:45.309Z,26.98
2022-10-19T07:24:12.615Z,27.08
2022-10-19T07:26:40.397Z,27.13
2022-10-19T07:29:08.174Z,25.80
2022-10-19T07:31:35.646Z,24.75
2022-10-19T07:34:05.682Z,24.05
2022-10-19T07:36:35.680Z,24.58
2022-10-19T07:39:06.276Z,24.65
2022-10-19T07:41:34.748Z,24.08
2022-10-19T07:44:02.935Z,23.33
2022-10-19T07:46:37.134Z,22.95
2022-10-19T07:49:09.703Z,22.85
2022-10-19T07:51:38.413Z,22.25
2022-10-19T07:54:07.144Z,23.05
2022-10-19T07:56:34.842Z,23.63
2022-10-19T07:59:04.833Z,21.65
2022-10-19T08:01:36.862Z,22.80
2022-10-19T08:06:52.009Z,23.17
2022-10-19T08:09:47.156Z,22.42
2022-10-19T08:12:07.259Z,22.48
2022-10-19T08:14:34.620Z,19.02
2022-10-19T08:17:01.944Z,18.33
2022-10-19T08:19:30.223Z,19.08
2022-10-19T08:21:57.968Z,17.27
2022-10-19T08:24:25.163Z,18.52
2022-10-19T08:26:52.407Z,18.08
2022-10-19T08:29:20.829Z,18.83
2022-10-19T08:31:49.361Z,19.88
2022-10-19T08:34:17.354Z,19.85
2022-10-19T08:36:45.166Z,18.65
2022-10-19T08:39:13.493Z,18.10
2022-10-19T08:41:41.311Z,19.30
2022-10-19T08:44:39.250Z,22.00
2022-10-19T08:47:18.496Z,21.88
2022-10-19T08:49:48.658Z,22.40
2022-10-19T08:52:21.299Z,21.25
2022-10-19T08:54:58.204Z,21.60
2022-10-19T08:57:53.304Z,22.25
2022-10-19T09:00:37.486Z,22.88
2022-10-19T09:03:37.526Z,22.40
2022-10-19T09:06:20.488Z,21.20
2022-10-19T09:08:50.400Z,21.65
2022-10-19T09:11:23.687Z,22.50
2022-10-19T09:14:04.663Z,22.42
2022-10-19T09:16:34.743Z,21.02
2022-10-19T09:19:04.165Z,23.08
2022-10-19T09:21:55.898Z,22.70
2022-10-19T09:24:41.916Z,23.58
2022-10-19T09:27:39.519Z,23.75
2022-10-19T09:30:16.844Z,24.13
2022-10-19T09:32:44.421Z,24.95
2022-10-19T09:35:36.351Z,23.60
2022-10-19T09:40:35.189Z,23.60
2022-10-19T09:43:19.650Z,24.00
2022-10-19T09:46:19.945Z,21.73
2022-10-19T09:48:50.862Z,22.67
2022-10-19T09:51:19.697Z,22.35
2022-10-19T09:53:52.877Z,25.20
2022-10-19T09:56:23.152Z,23.58
2022-10-19T09:58:58.708Z,22.58
2022-10-19T10:01:41.421Z,21.52
2022-10-19T10:04:13.929Z,24.55
2022-10-19T10:06:42.937Z,25.15
2022-10-19T10:09:22.195Z,26.23
2022-10-19T10:11:51.886Z,25.45
2022-10-19T10:14:27.364Z,26.40
2022-10-19T10:16:56.964Z,24.00
2022-10-19T10:19:28.673Z,25.15
2022-10-19T10:21:58.629Z,25.73
2022-10-19T10:24:29.225Z,27.20
2022-10-19T10:27:03.662Z,25.83
2022-10-19T10:29:36.928Z,26.23
2022-10-19T10:32:08.935Z,29.20
2022-10-19T10:34:57.323Z,28.05
2022-10-19T10:37:41.728Z,27.38
2022-10-19T10:40:25.189Z,27.23
2022-10-19T10:42:55.155Z,28.50
2022-10-19T10:45:42.799Z,29.00
2022-10-19T10:48:53.645Z,27.52
2022-10-19T10:51:38.563Z,27.85
2022-10-19T10:54:18.282Z,32.28
2022-10-19T10:57:06.273Z,31.65
2022-10-19T10:59:45.764Z,30.63
2022-10-19T11:05:06.450Z,29.92
2022-10-19T11:07:36.086Z,27.13
2022-10-19T11:10:11.761Z,29.30
2022-10-19T11:12:43.997Z,29.35
2022-10-19T11:15:21.116Z,29.13
2022-10-19T11:17:57.482Z,29.27
2022-10-19T11:20:29.740Z,28.88
2022-10-19T11:23:19.554Z,28.95
2022-10-19T11:26:11.216Z,31.10
2022-10-19T11:31:29.700Z,33.85
2022-10-19T11:34:18.629Z,31.38
2022-10-19T11:36:57.183Z,31.40
2022-10-19T11:39:25.123Z,30.52
2022-10-19T11:42:17.599Z,31.27
2022-10-19T11:45:11.554Z,29.00
2022-10-19T11:48:02.995Z,29.92
2022-10-19T11:50:54.252Z,32.65
2022-10-19T11:53:53.289Z,32.97
2022-10-19T11:56:44.706Z,30.00
2022-10-19T11:59:31.993Z,32.95
2022-10-19T12:02:38.127Z,33.75
2022-10-19T12:05:09.376Z,33.38
2022-10-19T12:07:36.543Z,35.47
2022-10-19T12:10:10.125Z,35.13
2022-10-19T12:12:44.660Z,36.45
2022-10-19T12:15:24.188Z,38.47
2022-10-19T12:17:54.767Z,37.95
2022-10-19T12:20:29.329Z,37.50
2022-10-19T12:22:59.777Z,37.95
2022-10-19T12:25:28.284Z,36.67
2022-10-19T12:27:57.093Z,34.78
2022-10-19T12:30:24.917Z,38.42
2022-10-19T12:32:55.065Z,39.63
2022-10-19T12:35:34.160Z,42.28
2022-10-19T12:38:14.972Z,40.55
2022-10-19T12:41:14.413Z,41.10
2022-10-19T12:44:11.669Z,40.13
2022-10-19T12:46:48.421Z,40.33
2022-10-19T12:49:31.073Z,39.10
2022-10-19T12:52:01.049Z,37.75
2022-10-19T12:54:31.815Z,34.53
2022-10-19T12:57:02.867Z,38.80
2022-10-19T12:59:37.014Z,34.78
2022-10-19T13:02:26.271Z,37.78
2022-10-19T13:04:54.251Z,32.22
2022-10-19T13:07:21.706Z,36.13
2022-10-19T13:09:50.376Z,32.30
2022-10-19T13:12:22.056Z,37.25
2022-10-19T13:14:54.595Z,38.53
2022-10-19T13:17:34.707Z,37.03
2022-10-19T13:20:14.573Z,39.03
2022-10-19T13:22:45.000Z,35.78
2022-10-19T13:25:30.765Z,31.95
2022-10-19T13:28:11.093Z,31.27
2022-10-19T13:30:38.654Z,30.83
2022-10-19T13:33:24.766Z,31.85
2022-10-19T13:36:02.191Z,31.77
2022-10-19T13:41:09.168Z,32.58
2022-10-19T13:44:01.104Z,31.77
2022-10-19T13:46:29.029Z,29.65
2022-10-19T13:48:59.816Z,31.55
2022-10-19T13:51:43.227Z,28.33
2022-10-19T13:54:18.421Z,29.38
2022-10-19T13:57:10.380Z,28.90
2022-10-19T14:00:01.878Z,23.25
2022-10-19T14:02:51.420Z,28.67
2022-10-19T14:05:22.416Z,26.63
2022-10-19T14:08:14.975Z,28.77
2022-10-19T14:11:00.044Z,31.58
2022-10-19T14:13:29.393Z,32.78
2022-10-19T14:16:00.203Z,28.05
2022-10-19T14:18:31.587Z,31.45
2022-10-19T14:23:28.116Z,31.67
2022-10-19T14:26:01.449Z,32.63
2022-10-19T14:28:29.771Z,34.45
2022-10-19T14:31:09.264Z,34.60
2022-10-19T14:33:41.017Z,30.75
2022-10-19T14:36:16.351Z,34.38
2022-10-19T14:38:43.829Z,34.05
2022-10-19T14:41:26.233Z,33.97
2022-10-19T14:43:56.139Z,32.60
2022-10-19T14:46:33.941Z,34.88
2022-10-19T14:49:07.178Z,32.58
2022-10-19T14:51:46.727Z,36.28
2022-10-19T14:54:29.025Z,34.78
2022-10-19T14:57:01.235Z,34.55
2022-10-19T14:59:46.342Z,35.30
2022-10-19T15:02:22.859Z,34.95
2022-10-19T15:04:52.804Z,32.63
2022-10-19T15:07:40.772Z,32.88
2022-10-19T15:10:36.422Z,32.58
2022-10-19T15:13:07.185Z,31.98
2022-10-19T15:15:40.759Z,33.33
2022-10-19T15:18:25.316Z,32.55
2022-10-19T15:21:15.712Z,40.30
2022-10-19T15:23:46.144Z,38.63
2022-10-19T15:26:25.714Z,34.58
2022-10-19T15:28:54.794Z,62.83
2022-10-19T15:31:28.344Z,34.72
2022-10-19T15:33:59.089Z,31.60
2022-10-19T15:36:28.083Z,33.80
2022-10-19T15:39:06.290Z,34.40
2022-10-19T15:41:46.376Z,31.83
2022-10-19T15:44:40.432Z,31.75
2022-10-19T15:47:19.098Z,31.05
2022-10-19T15:49:47.010Z,31.10
2022-10-19T15:52:29.480Z,32.67
2022-10-19T15:54:59.008Z,33.30
2022-10-19T15:57:36.090Z,34.50
2022-10-19T16:00:23.715Z,34.50
2022-10-19T16:02:51.890Z,32.10
2022-10-19T16:05:19.572Z,33.55
2022-10-19T16:07:47.740Z,36.30
2022-10-19T16:10:20.752Z,34.58
2022-10-19T16:12:48.475Z,35.72
2022-10-19T16:15:22.363Z,35.42
2022-10-19T16:17:54.294Z,37.47
2022-10-19T16:20:22.946Z,38.25
2022-10-19T16:22:50.893Z,35.88
2022-10-19T16:25:18.841Z,37.38
2022-10-19T16:27:46.634Z,38.30
2022-10-19T16:30:14.936Z,38.78
2022-10-19T16:35:14.586Z,37.05
2022-10-19T16:37:41.872Z,38.05
2022-10-19T16:40:10.309Z,39.60
2022-10-19T16:42:38.152Z,39.17
2022-10-19T16:45:06.201Z,39.22
2022-10-19T16:47:33.475Z,41.53
2022-10-19T16:50:02.888Z,40.00
2022-10-19T16:52:34.427Z,41.20
2022-10-19T16:55:02.312Z,40.90
2022-10-19T16:57:29.746Z,41.22
2022-10-19T16:59:57.428Z,43.50
2022-10-19T17:02:25.053Z,43.30
2022-10-19T17:04:52.582Z,44.58
2022-10-19T17:07:20.555Z,45.83
2022-10-19T17:09:49.686Z,44.58
2022-10-19T17:12:19.845Z,49.22
2022-10-19T17:14:47.225Z,49.67
2022-10-19T17:17:14.728Z,50.95
2022-10-19T17:19:42.187Z,50.25
2022-10-19T17:22:10.043Z,47.88
2022-10-19T17:24:39.101Z,48.22
2022-10-19T17:27:07.277Z,48.50
2022-10-19T17:29:34.656Z,48.22
2022-10-19T17:32:01.864Z,47.70
2022-10-19T17:34:29.423Z,49.08
2022-10-19T17:36:56.986Z,48.92
2022-10-19T17:39:28.963Z,44.65
2022-10-19T17:42:03.267Z,46.92
2022-10-19T17:44:31.706Z,47.47
2022-10-19T17:47:00.365Z,47.17
2022-10-19T17:49:30.116Z,45.75
2022-10-19T17:51:59.021Z,47.50
2022-10-19T17:54:26.534Z,46.20
2022-10-19T17:56:54.397Z,46.75
2022-10-19T17:59:30.302Z,46.97
2022-10-19T18:02:03.940Z,50.05
2022-10-19T18:04:31.298Z,50.83
2022-10-19T18:06:58.580Z,48.05
2022-10-19T18:09:25.968Z,46.58
2022-10-19T18:11:54.170Z,47.95
2022-10-19T18:14:22.687Z,49.17
2022-10-19T18:16:51.951Z,53.50
2022-10-19T18:19:19.871Z,53.70
2022-10-19T18:21:47.774Z,50.92
2022-10-19T18:24:19.813Z,50.28
2022-10-19T18:26:48.713Z,51.25
2022-10-19T18:29:22.938Z,50.42
2022-10-19T18:31:53.951Z,49.50
2022-10-19T18:34:24.448Z,52.60
2022-10-19T18:36:52.800Z,50.67
2022-10-19T18:39:21.336Z,53.00
2022-10-19T18:41:55.441Z,51.30
2022-10-19T18:44:27.113Z,46.30
2022-10-19T18:46:56.957Z,47.45
2022-10-19T18:49:25.139Z,47.28
2022-10-19T18:51:55.358Z,44.67
2022-10-19T18:54:26.262Z,46.92
2022-10-19T18:56:54.731Z,46.88
2022-10-19T18:59:22.555Z,47.67
2022-10-19T19:01:50.178Z,47.60
2022-10-19T19:04:18.473Z,48.55
2022-10-19T19:06:45.826Z,46.42
2022-10-19T19:09:13.419Z,45.15
2022-10-19T19:11:42.009Z,45.25
2022-10-19T19:14:21.076Z,49.92
2022-10-19T19:16:48.753Z,50.03
2022-10-19T19:19:18.975Z,48.75
2022-10-19T19:21:47.381Z,51.28
2022-10-19T19:24:21.936Z,50.63
2022-10-19T19:26:53.006Z,51.92
2022-10-19T19:29:22.373Z,54.13
2022-10-19T19:31:51.290Z,53.72
2022-10-19T19:34:18.744Z,57.42
2022-10-19T19:36:48.413Z,54.35
2022-10-19T19:39:19.458Z,54.65
2022-10-19T19:41:48.977Z,54.40
2022-10-19T19:44:17.398Z,52.72
2022-10-19T19:46:46.149Z,51.85
2022-10-19T19:49:14.403Z,55.42
2022-10-19T19:51:42.395Z,54.58
2022-10-19T19:54:09.850Z,48.78
2022-10-19T19:56:37.467Z,51.92
2022-10-19T19:59:05.101Z,51.63
2022-10-19T20:01:32.601Z,57.33
2022-10-19T20:06:36.976Z,59.50
2022-10-19T20:09:05.626Z,62.40
2022-10-19T20:11:33.096Z,62.40
2022-10-19T20:14:00.977Z,62.50
2022-10-19T20:16:34.265Z,65.68
2022-10-19T20:19:07.412Z,64.18
2022-10-19T20:21:34.725Z,64.15
2022-10-19T20:24:02.629Z,60.38
2022-10-19T20:26:30.451Z,60.47
2022-10-19T20:28:58.855Z,60.25
2022-10-19T20:31:26.409Z,61.08
2022-10-19T20:33:54.368Z,59.22
2022-10-19T20:36:24.082Z,62.03
2022-10-19T20:38:54.367Z,62.70
2022-10-19T20:41:24.351Z,60.33
2022-10-19T20:43:53.662Z,59.22
2022-10-19T20:46:24.796Z,56.85
2022-10-19T20:48:53.025Z,56.45
2022-10-19T20:51:24.768Z,57.30
2022-10-19T20:53:56.591Z,58.67
2022-10-19T20:56:26.865Z,60.08
